Time;durP1;ratioP1;P1;durP2;ratioP2;P2;SDS_P1;SDS_P2;PMS_P1;PMS_P2;Temp;Humidity;BMP_temperature;BMP_pressure;BME280_temperature;BME280_humidity;BME280_pressure;Samples;Min_cycle;Max_cycle;Signal;HPM_P1;HPM_P2
2021/04/03 00:02:03;;;;;;;13.20;1.50;;;5.70;88.90;;;;;;4910736;28;20476;-84
2021/04/03 00:04:29;;;;;;;13.50;1.33;;;5.70;87.90;;;;;;4912754;29;20051;-84
2021/04/03 00:06:54;;;;;;;16.55;1.88;;;5.70;87.50;;;;;;4912933;29;20020;-82
2021/04/03 00:09:20;;;;;;;14.23;1.40;;;5.70;87.10;;;;;;4912405;29;20028;-83
2021/04/03 00:11:45;;;;;;;21.10;1.27;;;5.70;87.00;;;;;;4912807;29;20028;-83
2021/04/03 00:14:11;;;;;;;13.32;1.25;;;5.70;86.90;;;;;;4912626;29;20090;-83
2021/04/03 00:16:36;;;;;;;15.23;1.25;;;5.70;86.80;;;;;;4911938;28;20062;-83
2021/04/03 00:19:02;;;;;;;16.35;1.80;;;5.70;86.60;;;;;;4912599;28;20060;-83
2021/04/03 00:21:27;;;;;;;16.75;1.63;;;5.60;86.60;;;;;;4912143;28;20111;-82
2021/04/03 00:23:53;;;;;;;14.55;1.35;;;5.50;86.70;;;;;;4915504;28;20040;-83
2021/04/03 00:26:18;;;;;;;14.93;1.30;;;5.40;86.90;;;;;;4930815;28;20030;-83
2021/04/03 00:28:44;;;;;;;32.03;2.15;;;5.40;87.10;;;;;;4915909;29;20369;-83
2021/04/03 00:31:09;;;;;;;11.15;1.20;;;5.30;87.30;;;;;;4915011;28;20024;-83
2021/04/03 00:33:35;;;;;;;14.57;1.00;;;5.30;87.50;;;;;;4915874;29;20131;-83
2021/04/03 00:36:00;;;;;;;11.32;1.00;;;5.20;87.70;;;;;;4915944;29;20025;-83
2021/04/03 00:38:26;;;;;;;19.27;1.50;;;5.20;87.90;;;;;;4915863;29;20114;-83
2021/04/03 00:40:51;;;;;;;13.55;1.15;;;5.20;88.00;;;;;;4914605;28;20089;-83
2021/04/03 00:43:20;;;;;;;13.48;1.75;;;5.20;88.00;;;;;;4915561;29;20554;-83
2021/04/03 00:45:47;;;;;;;14.45;1.42;;;5.20;87.80;;;;;;4915753;29;20027;-82
2021/04/03 00:48:13;;;;;;;15.63;1.20;;;5.30;87.80;;;;;;4915867;29;20391;-83
2021/04/03 00:50:41;;;;;;;17.38;2.05;;;5.30;87.60;;;;;;4915627;29;20024;-82
2021/04/03 00:53:12;;;;;;;19.30;1.67;;;5.30;87.50;;;;;;4913607;28;20055;-83
2021/04/03 00:55:37;;;;;;;14.43;1.75;;;5.30;87.40;;;;;;4917076;29;20035;-83
2021/04/03 00:58:03;;;;;;;8.07;1.08;;;5.30;87.40;;;;;;4915730;28;20052;-83
2021/04/03 01:00:29;;;;;;;17.05;1.35;;;5.30;87.50;;;;;;4931153;28;20024;-83
2021/04/03 01:02:55;;;;;;;12.52;1.48;;;5.30;87.50;;;;;;4915404;29;20036;-83
2021/04/03 01:05:23;;;;;;;10.45;1.27;;;5.30;87.60;;;;;;4916549;29;20036;-83
2021/04/03 01:07:49;;;;;;;15.95;1.10;;;5.30;87.60;;;;;;4913026;28;20035;-83
2021/04/03 01:10:20;;;;;;;17.13;1.23;;;5.30;87.60;;;;;;4897651;28;20029;-83
2021/04/03 01:13:31;;;;;;;14.70;1.45;;;5.30;87.60;;;;;;4901337;29;20054;-83
2021/04/03 01:16:24;;;;;;;15.10;1.55;;;5.30;87.70;;;;;;4916489;29;20020;-83
2021/04/03 01:19:25;;;;;;;12.02;1.30;;;5.30;87.70;;;;;;4915274;29;20111;-83
2021/04/03 01:22:15;;;;;;;15.95;1.17;;;5.30;88.30;;;;;;4913315;28;20036;-83
2021/04/03 01:24:54;;;;;;;15.55;1.98;;;5.30;87.70;;;;;;4915920;29;20479;-83
2021/04/03 01:27:21;;;;;;;16.80;1.65;;;5.30;87.80;;;;;;4918582;29;20028;-83
2021/04/03 01:30:06;;;;;;;11.57;1.58;;;5.30;87.80;;;;;;4916350;28;20047;-83
2021/04/03 01:32:50;;;;;;;17.95;1.52;;;5.30;88.00;;;;;;4915027;28;20031;-84
2021/04/03 01:35:24;;;;;;;13.35;1.73;;;5.30;88.00;;;;;;4904224;28;20039;-83
2021/04/03 01:38:05;;;;;;;17.95;2.03;;;5.30;88.00;;;;;;4897226;28;20040;-83
2021/04/03 01:40:32;;;;;;;14.18;1.75;;;5.30;88.10;;;;;;4897070;28;20086;-83
2021/04/03 01:43:03;;;;;;;15.82;1.67;;;5.30;88.10;;;;;;4896184;28;20028;-83
2021/04/03 01:45:29;;;;;;;15.05;1.25;;;5.30;88.10;;;;;;4907917;28;20174;-83
2021/04/03 01:47:56;;;;;;;15.95;2.03;;;5.30;88.20;;;;;;4914724;29;20427;-83
2021/04/03 01:50:23;;;;;;;11.35;0.65;;;5.30;88.30;;;;;;4914936;29;20081;-83
2021/04/03 01:52:50;;;;;;;16.63;2.25;;;5.30;88.30;;;;;;4910664;28;20467;-84
2021/04/03 01:55:17;;;;;;;16.33;1.48;;;5.30;88.30;;;;;;4911477;29;20388;-83
2021/04/03 01:57:48;;;;;;;19.10;1.40;;;5.40;88.30;;;;;;4931945;28;20026;-83
2021/04/03 02:00:19;;;;;;;10.38;1.85;;;5.40;88.20;;;;;;4984759;28;20069;-83
2021/04/03 02:02:45;;;;;;;10.70;0.70;;;5.40;88.00;;;;;;4896871;29;20391;-83
2021/04/03 02:05:12;;;;;;;9.30;1.35;;;5.40;88.00;;;;;;4910954;28;20039;-83
2021/04/03 02:07:42;;;;;;;12.32;1.23;;;5.40;88.00;;;;;;4915611;28;20028;-83
2021/04/03 02:10:11;;;;;;;14.65;1.55;;;5.40;88.00;;;;;;4915697;29;20024;-83
2021/04/03 02:12:39;;;;;;;15.73;1.58;;;5.40;88.00;;;;;;4913132;29;20475;-84
2021/04/03 02:15:09;;;;;;;18.23;1.33;;;5.40;87.90;;;;;;4914318;29;20067;-84
2021/04/03 02:17:36;;;;;;;12.93;1.35;;;5.40;88.50;;;;;;4914255;29;20035;-83
2021/04/03 02:20:04;;;;;;;14.57;1.48;;;5.40;87.80;;;;;;4915399;29;20026;-83
2021/04/03 02:22:30;;;;;;;8.50;0.82;;;5.50;87.80;;;;;;4914026;29;20024;-83
2021/04/03 02:24:56;;;;;;;19.73;1.77;;;5.40;87.70;;;;;;4915358;29;20110;-83
2021/04/03 02:27:22;;;;;;;10.20;0.60;;;5.40;87.50;;;;;;4914412;29;20025;-84
2021/04/03 02:29:47;;;;;;;11.30;1.17;;;5.40;87.40;;;;;;4915408;29;20028;-84
2021/04/03 02:32:13;;;;;;;20.95;1.55;;;5.40;87.40;;;;;;4913387;29;20024;-84
2021/04/03 02:34:39;;;;;;;13.38;1.38;;;5.40;87.30;;;;;;4914178;29;20032;-84
2021/04/03 02:37:05;;;;;;;21.75;1.98;;;5.40;87.30;;;;;;4913160;29;20434;-84
2021/04/03 02:39:30;;;;;;;16.02;0.95;;;5.40;87.20;;;;;;4915197;29;20051;-84
2021/04/03 02:42:01;;;;;;;18.20;1.08;;;5.50;87.20;;;;;;4896178;29;20401;-84
2021/04/03 02:44:35;;;;;;;20.50;2.45;;;5.50;87.10;;;;;;4903604;29;20036;-84
2021/04/03 02:47:11;;;;;;;15.45;1.70;;;5.50;87.00;;;;;;4913877;29;20626;-85
2021/04/03 02:49:42;;;;;;;15.90;1.15;;;5.50;86.80;;;;;;4915107;29;20032;-84
2021/04/03 02:52:12;;;;;;;17.67;1.42;;;5.60;86.70;;;;;;4914316;29;20044;-85
2021/04/03 02:54:40;;;;;;;14.23;1.00;;;5.50;86.60;;;;;;4913641;29;20127;-84
2021/04/03 02:57:08;;;;;;;17.83;1.52;;;5.60;86.60;;;;;;4905262;29;20035;-84
2021/04/03 02:59:37;;;;;;;16.80;1.52;;;5.60;86.50;;;;;;4912655;28;20497;-84
2021/04/03 03:02:04;;;;;;;22.20;1.33;;;5.60;86.40;;;;;;4913275;29;20051;-84
2021/04/03 03:04:30;;;;;;;17.98;1.88;;;5.60;86.10;;;;;;4912327;29;20110;-84
2021/04/03 03:06:58;;;;;;;13.32;1.13;;;5.60;86.10;;;;;;4914600;29;20032;-84
2021/04/03 03:09:25;;;;;;;11.77;1.10;;;5.60;86.00;;;;;;4914681;29;20028;-84
2021/04/03 03:11:58;;;;;;;12.38;1.00;;;5.50;85.90;;;;;;4913473;29;20472;-84
2021/04/03 03:14:25;;;;;;;12.30;1.20;;;5.60;85.80;;;;;;4913122;29;20044;-84
2021/04/03 03:16:54;;;;;;;14.50;1.48;;;5.50;85.70;;;;;;4913620;29;20048;-84
2021/04/03 03:19:20;;;;;;;11.48;1.27;;;5.50;85.60;;;;;;4912408;29;20036;-84
2021/04/03 03:21:47;;;;;;;13.88;1.38;;;5.50;85.50;;;;;;4913834;29;20030;-84
2021/04/03 03:24:13;;;;;;;21.05;1.35;;;5.50;85.40;;;;;;4911611;29;20031;-84
2021/04/03 03:26:40;;;;;;;19.88;1.95;;;5.50;85.40;;;;;;4914320;29;20028;-84
2021/04/03 03:29:08;;;;;;;18.08;1.30;;;5.50;85.40;;;;;;4913413;29;20431;-84
2021/04/03 03:31:34;;;;;;;19.25;2.13;;;5.50;85.30;;;;;;4913220;28;20476;-84
2021/04/03 03:34:00;;;;;;;9.30;1.08;;;5.40;85.20;;;;;;4913011;29;20059;-84
2021/04/03 03:36:30;;;;;;;13.13;1.80;;;5.40;85.20;;;;;;4912585;29;20054;-84
2021/04/03 03:38:57;;;;;;;12.80;1.33;;;5.40;85.10;;;;;;4913312;29;20062;-84
2021/04/03 03:41:26;;;;;;;19.45;1.33;;;5.30;85.10;;;;;;4912962;28;20031;-84
2021/04/03 03:43:53;;;;;;;12.73;1.40;;;5.30;85.00;;;;;;4914262;29;20036;-84
2021/04/03 03:46:18;;;;;;;21.58;1.38;;;5.20;84.90;;;;;;4907855;29;20395;-84
2021/04/03 03:48:44;;;;;;;20.17;1.45;;;5.20;85.00;;;;;;4913863;29;20024;-84
2021/04/03 03:51:10;;;;;;;14.30;1.70;;;5.10;85.00;;;;;;4906275;29;20036;-84
2021/04/03 03:53:36;;;;;;;14.35;1.30;;;5.00;85.00;;;;;;4906825;29;20377;-84
2021/04/03 03:56:02;;;;;;;17.17;1.33;;;4.90;85.00;;;;;;4913823;29;20023;-84
2021/04/03 03:58:28;;;;;;;20.15;1.40;;;4.90;85.20;;;;;;4916348;28;20118;-84
2021/04/03 04:00:54;;;;;;;20.50;2.63;;;4.90;85.20;;;;;;4910980;29;20444;-84
2021/04/03 04:03:20;;;;;;;17.60;1.27;;;4.70;85.20;;;;;;4902714;28;20504;-84
2021/04/03 04:05:45;;;;;;;17.50;1.60;;;4.70;85.40;;;;;;4898442;28;20036;-84
2021/04/03 04:08:11;;;;;;;16.92;1.40;;;4.60;85.50;;;;;;4897596;28;20095;-84
2021/04/03 04:10:37;;;;;;;18.30;2.05;;;4.60;85.50;;;;;;4979876;28;20056;-84
2021/04/03 04:13:03;;;;;;;17.73;1.48;;;4.50;85.60;;;;;;4898572;28;20108;-84
2021/04/03 04:15:29;;;;;;;20.00;2.47;;;4.50;85.60;;;;;;4956719;28;20024;-84
2021/04/03 04:17:54;;;;;;;24.92;1.85;;;4.40;85.70;;;;;;4915443;29;20036;-84
2021/04/03 04:20:20;;;;;;;20.92;2.88;;;4.40;85.90;;;;;;4915018;29;20020;-84
2021/04/03 04:22:46;;;;;;;17.88;1.60;;;4.30;86.00;;;;;;4916125;29;20392;-84
2021/04/03 04:25:12;;;;;;;10.95;1.50;;;4.30;86.20;;;;;;4915990;29;20025;-84
2021/04/03 04:27:37;;;;;;;20.08;1.38;;;4.20;86.30;;;;;;4915428;28;20036;-84
2021/04/03 04:30:09;;;;;;;26.67;1.83;;;4.10;86.30;;;;;;4915930;29;20027;-84
2021/04/03 04:32:39;;;;;;;16.63;1.48;;;4.10;86.50;;;;;;4916199;28;20036;-84
2021/04/03 04:35:06;;;;;;;12.82;1.55;;;4.10;86.60;;;;;;4915550;28;20102;-84
2021/04/03 04:37:32;;;;;;;18.65;1.52;;;3.90;86.70;;;;;;4915772;29;20028;-84
2021/04/03 04:39:57;;;;;;;15.05;1.33;;;3.90;86.90;;;;;;4916968;29;20094;-84
2021/04/03 04:42:23;;;;;;;20.35;1.92;;;3.90;87.10;;;;;;4905662;29;20028;-84
2021/04/03 04:44:48;;;;;;;21.08;1.30;;;3.80;87.20;;;;;;4896884;28;20029;-84
2021/04/03 04:47:14;;;;;;;17.83;1.65;;;3.80;87.30;;;;;;4907292;28;20030;-83
2021/04/03 04:49:39;;;;;;;18.25;1.60;;;3.80;87.40;;;;;;4915435;29;20024;-84
2021/04/03 04:52:05;;;;;;;19.75;1.27;;;3.70;87.50;;;;;;4914722;29;20025;-84
2021/04/03 04:54:31;;;;;;;14.07;1.50;;;3.60;87.80;;;;;;4915503;29;20040;-84
2021/04/03 04:56:56;;;;;;;21.95;1.80;;;3.50;88.10;;;;;;4914678;29;20044;-84
2021/04/03 04:59:22;;;;;;;18.52;1.45;;;3.50;88.30;;;;;;4915433;28;20098;-84
2021/04/03 05:01:47;;;;;;;17.45;1.67;;;3.40;88.50;;;;;;4915395;29;20115;-84
2021/04/03 05:04:13;;;;;;;9.13;1.35;;;3.40;88.60;;;;;;4915345;29;20028;-84
2021/04/03 05:06:38;;;;;;;21.80;2.38;;;3.30;88.80;;;;;;4915437;29;20388;-84
2021/04/03 05:09:04;;;;;;;22.23;1.88;;;3.30;89.00;;;;;;4914404;29;20039;-84
2021/04/03 05:11:29;;;;;;;18.60;2.05;;;3.20;89.20;;;;;;4914948;29;20063;-84
2021/04/03 05:13:55;;;;;;;25.05;2.10;;;3.20;89.40;;;;;;4915381;29;20040;-84
2021/04/03 05:16:20;;;;;;;20.67;2.30;;;3.20;89.60;;;;;;4914169;29;20163;-84
2021/04/03 05:18:46;;;;;;;24.80;2.75;;;3.20;89.70;;;;;;4915151;29;20067;-84
2021/04/03 05:21:11;;;;;;;33.03;3.15;;;3.20;89.80;;;;;;4905527;28;20033;-84
2021/04/03 05:23:37;;;;;;;24.00;2.03;;;3.20;89.90;;;;;;4896337;29;20040;-84
2021/04/03 05:26:03;;;;;;;20.15;2.05;;;3.10;90.00;;;;;;4913705;28;20020;-84
2021/04/03 05:28:28;;;;;;;25.77;3.28;;;3.10;90.10;;;;;;4915298;29;20560;-84
2021/04/03 05:30:54;;;;;;;22.27;1.98;;;3.10;90.20;;;;;;4915304;29;20024;-84
2021/04/03 05:33:19;;;;;;;14.02;2.03;;;3.00;90.20;;;;;;4915066;29;20412;-84
2021/04/03 05:35:45;;;;;;;25.98;2.92;;;3.00;90.30;;;;;;4914995;29;20020;-84
2021/04/03 05:38:10;;;;;;;25.58;2.50;;;3.10;90.50;;;;;;4913905;29;20032;-84
2021/04/03 05:40:36;;;;;;;15.73;1.65;;;3.10;90.60;;;;;;4914919;29;20078;-84
2021/04/03 05:43:03;;;;;;;27.85;2.58;;;3.20;90.60;;;;;;4914836;29;20366;-84
2021/04/03 05:45:29;;;;;;;20.90;1.88;;;3.40;90.50;;;;;;4915198;29;20567;-84
2021/04/03 05:47:57;;;;;;;21.27;2.40;;;3.50;90.50;;;;;;4913414;28;20036;-84
2021/04/03 05:50:23;;;;;;;19.88;3.65;;;3.60;90.50;;;;;;4915098;28;20083;-84
2021/04/03 05:52:49;;;;;;;19.30;2.40;;;3.70;90.50;;;;;;4913953;28;20059;-84
2021/04/03 05:55:14;;;;;;;11.82;1.65;;;3.80;90.50;;;;;;4913041;28;20070;-84
2021/04/03 05:57:40;;;;;;;22.20;2.33;;;3.90;90.50;;;;;;4914564;28;20039;-83
2021/04/03 06:00:07;;;;;;;22.33;2.58;;;3.90;90.50;;;;;;4912968;28;20055;-83
2021/04/03 06:02:40;;;;;;;17.77;2.38;;;4.00;90.50;;;;;;4914524;29;20021;-83
2021/04/03 06:05:07;;;;;;;20.60;2.72;;;4.10;90.50;;;;;;4915857;29;20027;-83
2021/04/03 06:07:34;;;;;;;28.60;4.00;;;4.20;90.50;;;;;;4914827;29;20032;-83
2021/04/03 06:10:01;;;;;;;28.50;2.58;;;4.30;90.40;;;;;;4910701;29;20489;-83
2021/04/03 06:12:44;;;;;;;24.63;2.80;;;4.30;90.40;;;;;;4895780;29;20059;-83
2021/04/03 06:15:26;;;;;;;24.40;3.85;;;4.40;90.40;;;;;;4905508;28;20511;-83
2021/04/03 06:17:59;;;;;;;26.80;3.50;;;4.60;90.40;;;;;;4900477;29;20024;-84
2021/04/03 06:20:34;;;;;;;24.10;2.75;;;4.70;90.30;;;;;;4913652;28;20064;-84
2021/04/03 06:23:01;;;;;;;29.65;2.63;;;4.90;90.10;;;;;;4929311;29;20021;-84
2021/04/03 06:25:27;;;;;;;24.48;2.65;;;5.00;90.10;;;;;;4914771;29;20579;-84
2021/04/03 06:28:08;;;;;;;31.83;3.60;;;5.10;90.00;;;;;;4913547;29;20024;-84
2021/04/03 06:30:39;;;;;;;22.08;2.45;;;5.30;89.80;;;;;;4913601;28;20033;-83
2021/04/03 06:33:19;;;;;;;27.42;3.13;;;5.40;89.60;;;;;;4913958;28;20492;-84
2021/04/03 06:36:03;;;;;;;24.08;2.90;;;5.50;89.30;;;;;;4915450;29;20028;-84
2021/04/03 06:38:28;;;;;;;26.42;3.83;;;5.60;89.20;;;;;;4909016;28;20389;-84
2021/04/03 06:41:23;;;;;;;21.20;2.33;;;5.60;89.10;;;;;;4915022;29;20025;-84
2021/04/03 06:44:07;;;;;;;24.88;3.50;;;5.70;88.90;;;;;;4911795;28;20028;-84
2021/04/03 06:46:36;;;;;;;22.65;4.30;;;5.80;88.80;;;;;;4901983;29;20031;-84
2021/04/03 06:49:03;;;;;;;35.92;2.95;;;5.90;88.60;;;;;;4909798;29;20069;-84
2021/04/03 06:51:29;;;;;;;24.23;2.80;;;5.90;88.60;;;;;;4947453;28;20031;-84
2021/04/03 06:53:56;;;;;;;30.00;4.35;;;5.90;88.60;;;;;;4914052;29;20151;-84
2021/04/03 06:56:24;;;;;;;28.65;4.00;;;6.00;88.50;;;;;;4915103;29;20365;-84
2021/04/03 06:59:04;;;;;;;25.17;2.50;;;6.10;88.20;;;;;;4914624;28;20056;-85
2021/04/03 07:01:47;;;;;;;29.50;4.43;;;6.10;88.20;;;;;;4909438;29;20047;-84
2021/04/03 07:04:43;;;;;;;25.63;2.70;;;6.10;87.90;;;;;;4910517;29;20037;-83
2021/04/03 07:07:10;;;;;;;31.05;4.43;;;6.20;88.00;;;;;;4892432;28;20036;-84
2021/04/03 07:09:36;;;;;;;32.60;3.60;;;6.20;88.10;;;;;;4976874;28;20127;-84
2021/04/03 07:12:03;;;;;;;34.88;3.95;;;6.20;87.90;;;;;;4895896;29;20036;-85
2021/04/03 07:14:31;;;;;;;37.92;3.90;;;6.30;87.80;;;;;;4895644;28;20041;-83
2021/04/03 07:16:57;;;;;;;31.13;3.95;;;6.30;87.70;;;;;;4895705;28;20020;-84
2021/04/03 07:19:27;;;;;;;35.28;3.35;;;6.40;87.80;;;;;;4910385;28;20043;-84
2021/04/03 07:21:53;;;;;;;32.20;3.35;;;6.40;87.50;;;;;;4912636;29;20036;-84
2021/04/03 07:24:19;;;;;;;34.33;3.50;;;6.40;87.20;;;;;;4914173;29;20028;-83
2021/04/03 07:26:47;;;;;;;33.95;4.72;;;6.30;87.10;;;;;;4913322;29;20062;-84
2021/04/03 07:29:45;;;;;;;28.85;3.58;;;6.30;87.40;;;;;;4916625;29;20056;-84
2021/04/03 07:32:33;;;;;;;34.63;3.35;;;6.30;87.30;;;;;;4912581;29;20028;-83
2021/04/03 07:35:00;;;;;;;31.05;3.75;;;6.40;87.20;;;;;;4924813;28;20044;-83
2021/04/03 07:37:35;;;;;;;24.13;2.20;;;6.30;87.00;;;;;;4909871;29;20485;-84
2021/04/03 07:40:02;;;;;;;36.75;3.05;;;6.30;87.00;;;;;;4910012;29;20480;-84
2021/04/03 07:42:33;;;;;;;38.58;4.32;;;6.40;87.10;;;;;;4911710;29;20028;-83
2021/04/03 07:45:00;;;;;;;40.92;4.43;;;6.40;87.10;;;;;;4901826;28;20423;-83
2021/04/03 07:47:25;;;;;;;22.90;3.55;;;6.50;86.90;;;;;;4910378;28;20115;-83
2021/04/03 07:49:52;;;;;;;24.17;2.88;;;6.50;86.90;;;;;;4911975;29;20140;-83
2021/04/03 07:52:56;;;;;;;24.27;3.25;;;6.60;86.90;;;;;;4913277;29;20028;-83
2021/04/03 07:55:32;;;;;;;35.53;5.70;;;6.70;86.60;;;;;;4913060;29;20135;-83
2021/04/03 07:58:24;;;;;;;32.28;3.50;;;6.80;86.30;;;;;;4912914;28;20404;-83
2021/04/03 08:00:50;;;;;;;23.30;2.92;;;6.90;86.20;;;;;;4912960;29;20036;-83
2021/04/03 08:03:21;;;;;;;37.22;3.90;;;7.00;86.00;;;;;;4912008;29;20131;-83
2021/04/03 08:06:09;;;;;;;22.83;3.42;;;7.10;85.70;;;;;;4912957;29;20024;-83
2021/04/03 08:08:38;;;;;;;32.63;4.95;;;7.20;85.40;;;;;;4912796;29;20566;-84
2021/04/03 08:11:17;;;;;;;28.95;3.42;;;7.20;84.60;;;;;;4912948;29;20032;-83
2021/04/03 08:13:44;;;;;;;24.58;2.63;;;7.30;84.00;;;;;;4909157;28;20497;-83
2021/04/03 08:16:12;;;;;;;30.35;3.45;;;7.30;84.10;;;;;;4911836;28;20032;-84
2021/04/03 08:18:42;;;;;;;26.27;3.65;;;7.50;84.20;;;;;;4911577;29;20051;-84
2021/04/03 08:21:08;;;;;;;28.40;3.58;;;7.60;83.10;;;;;;4912065;29;20079;-84
2021/04/03 08:23:47;;;;;;;25.83;3.75;;;7.70;83.20;;;;;;4912683;29;20032;-84
2021/04/03 08:26:14;;;;;;;28.38;3.20;;;7.90;82.70;;;;;;4912670;29;20025;-84
2021/04/03 08:28:43;;;;;;;31.38;3.65;;;8.00;82.80;;;;;;4913649;28;20124;-84
2021/04/03 08:31:18;;;;;;;24.42;3.33;;;8.30;82.30;;;;;;4912328;29;20032;-84
2021/04/03 08:33:45;;;;;;;22.30;3.20;;;8.50;81.30;;;;;;4912403;29;20040;-84
2021/04/03 08:36:16;;;;;;;26.85;3.95;;;8.70;80.20;;;;;;4912497;29;20024;-84
2021/04/03 08:38:45;;;;;;;21.08;2.55;;;8.80;79.40;;;;;;4912683;29;20115;-84
2021/04/03 08:41:18;;;;;;;27.83;3.35;;;9.00;78.40;;;;;;4912477;29;20024;-84
2021/04/03 08:43:43;;;;;;;22.13;3.50;;;9.20;78.10;;;;;;4913197;29;20064;-84
2021/04/03 08:46:13;;;;;;;22.42;3.42;;;9.30;76.70;;;;;;4916246;29;20051;-84
2021/04/03 08:48:41;;;;;;;30.02;3.30;;;9.30;76.30;;;;;;4914629;29;20098;-84
2021/04/03 08:51:08;;;;;;;28.30;4.18;;;9.30;75.40;;;;;;4915756;29;20391;-84
2021/04/03 08:53:45;;;;;;;25.55;3.42;;;9.40;76.10;;;;;;4899583;29;20558;-84
2021/04/03 08:56:19;;;;;;;22.73;2.70;;;9.40;75.80;;;;;;4896428;28;20028;-85
2021/04/03 08:58:44;;;;;;;17.73;2.47;;;9.50;75.30;;;;;;4897798;28;20064;-84
2021/04/03 09:01:10;;;;;;;20.17;2.58;;;9.50;75.00;;;;;;4897653;29;20477;-84
2021/04/03 09:03:37;;;;;;;17.77;2.38;;;9.50;75.10;;;;;;4939469;28;20032;-84
2021/04/03 09:06:05;;;;;;;14.40;1.55;;;9.50;75.40;;;;;;4914438;28;20097;-85
2021/04/03 09:08:30;;;;;;;26.35;3.70;;;9.40;74.60;;;;;;4915337;29;20048;-85
2021/04/03 09:11:01;;;;;;;24.35;2.72;;;9.30;74.00;;;;;;4915327;29;20020;-85
2021/04/03 09:13:37;;;;;;;21.50;2.38;;;9.20;74.20;;;;;;4915488;29;20131;-85
2021/04/03 09:16:10;;;;;;;17.80;2.38;;;9.00;74.30;;;;;;4915326;29;20488;-85
2021/04/03 09:18:37;;;;;;;15.45;2.22;;;9.00;74.40;;;;;;4910664;29;20025;-83
2021/04/03 09:21:03;;;;;;;19.48;2.25;;;8.90;74.50;;;;;;4896400;29;20033;-83
2021/04/03 09:23:28;;;;;;;20.50;2.58;;;8.90;74.50;;;;;;4912626;29;20075;-83
2021/04/03 09:26:02;;;;;;;22.08;3.03;;;8.90;74.20;;;;;;4915105;29;20024;-83
2021/04/03 09:28:39;;;;;;;28.60;2.90;;;8.90;74.20;;;;;;4915037;29;20393;-83
2021/04/03 09:31:08;;;;;;;16.73;2.75;;;8.90;74.10;;;;;;4914970;29;20024;-83
2021/04/03 09:33:44;;;;;;;21.92;2.28;;;8.90;74.10;;;;;;4915266;29;20139;-83
2021/04/03 09:36:12;;;;;;;23.13;2.83;;;9.10;73.80;;;;;;4916047;29;20029;-84
2021/04/03 09:38:38;;;;;;;20.25;3.35;;;9.20;73.70;;;;;;4914952;29;20024;-83
2021/04/03 09:41:19;;;;;;;20.92;3.42;;;9.30;72.80;;;;;;4915624;28;20032;-84
2021/04/03 09:43:45;;;;;;;20.88;3.25;;;9.40;72.90;;;;;;4914794;29;20051;-84
2021/04/03 09:46:11;;;;;;;24.73;2.38;;;9.40;72.80;;;;;;4915910;28;20064;-84
2021/04/03 09:48:36;;;;;;;27.30;2.55;;;9.40;72.60;;;;;;4914022;29;20036;-84
2021/04/03 09:51:06;;;;;;;19.58;2.55;;;9.30;72.70;;;;;;4914978;29;20480;-85
2021/04/03 09:53:31;;;;;;;23.13;3.65;;;9.20;73.10;;;;;;4914208;28;20432;-85
2021/04/03 09:55:57;;;;;;;18.23;2.83;;;9.20;73.60;;;;;;4914281;29;20024;-85
2021/04/03 09:58:24;;;;;;;11.25;1.80;;;9.30;73.10;;;;;;4915500;28;20060;-85
2021/04/03 10:00:49;;;;;;;25.35;3.10;;;9.50;72.90;;;;;;4915684;29;20028;-83
2021/04/03 10:03:15;;;;;;;23.40;3.20;;;9.80;72.20;;;;;;4914435;29;20028;-85
2021/04/03 10:05:41;;;;;;;21.70;2.75;;;10.10;71.50;;;;;;4909665;28;20037;-83
2021/04/03 10:08:06;;;;;;;23.40;2.90;;;10.30;70.80;;;;;;4911642;29;20080;-83
2021/04/03 10:10:32;;;;;;;24.35;3.25;;;10.50;70.00;;;;;;4896786;29;20461;-84
2021/04/03 10:12:58;;;;;;;29.33;3.92;;;10.50;68.70;;;;;;4911280;29;20476;-84
2021/04/03 10:15:23;;;;;;;33.50;2.80;;;10.40;69.60;;;;;;4896570;29;20112;-84
2021/04/03 10:17:49;;;;;;;21.67;3.00;;;10.40;69.80;;;;;;4897889;29;20033;-84
2021/04/03 10:20:16;;;;;;;18.88;2.47;;;10.40;69.70;;;;;;4914582;29;20388;-84
2021/04/03 10:22:42;;;;;;;25.73;3.78;;;10.30;68.70;;;;;;4913617;29;20435;-84
2021/04/03 10:25:08;;;;;;;16.67;3.03;;;10.00;69.10;;;;;;4909108;28;20029;-84
2021/04/03 10:27:34;;;;;;;31.45;3.33;;;9.80;69.90;;;;;;4896696;28;20039;-84
2021/04/03 10:30:00;;;;;;;20.92;2.83;;;9.70;70.00;;;;;;4913593;29;20024;-83
2021/04/03 10:32:25;;;;;;;21.35;2.65;;;9.80;71.10;;;;;;4914025;29;20039;-84
2021/04/03 10:34:51;;;;;;;24.10;3.50;;;9.90;69.80;;;;;;4914264;29;20094;-84
2021/04/03 10:37:16;;;;;;;19.00;2.63;;;10.00;69.90;;;;;;4914166;29;20024;-84
2021/04/03 10:39:42;;;;;;;18.15;2.53;;;10.30;70.40;;;;;;4914016;29;20024;-84
2021/04/03 10:42:08;;;;;;;19.77;2.63;;;10.60;68.50;;;;;;4914145;29;20051;-84
2021/04/03 10:44:33;;;;;;;18.42;2.88;;;10.60;67.60;;;;;;4910211;29;20467;-84
2021/04/03 10:46:59;;;;;;;21.83;2.10;;;10.80;66.80;;;;;;4993072;28;20026;-84
2021/04/03 10:49:25;;;;;;;15.73;2.58;;;11.10;67.60;;;;;;4941714;28;20029;-84
2021/04/03 10:51:51;;;;;;;19.83;3.25;;;11.30;65.80;;;;;;4895305;29;20037;-84
2021/04/03 10:54:19;;;;;;;23.45;3.33;;;11.40;65.50;;;;;;4909098;28;20041;-84
2021/04/03 10:56:45;;;;;;;17.55;2.30;;;11.30;64.70;;;;;;4896271;28;20481;-84
2021/04/03 10:59:11;;;;;;;24.23;2.42;;;11.00;64.80;;;;;;4896027;28;20560;-84
2021/04/03 11:01:36;;;;;;;19.42;3.50;;;10.80;66.10;;;;;;4899845;28;20032;-85
2021/04/03 11:04:02;;;;;;;22.58;2.97;;;10.70;66.10;;;;;;4912748;29;20035;-85
2021/04/03 11:06:27;;;;;;;19.33;3.00;;;10.80;66.60;;;;;;4895366;28;20104;-84
2021/04/03 11:08:53;;;;;;;20.95;2.97;;;11.00;65.90;;;;;;4976767;28;20059;-84
2021/04/03 11:11:18;;;;;;;17.27;3.53;;;11.20;66.50;;;;;;4894875;28;20031;-84
2021/04/03 11:13:44;;;;;;;17.63;2.17;;;11.50;65.90;;;;;;4895911;28;20140;-84
2021/04/03 11:16:09;;;;;;;18.98;3.00;;;11.70;65.20;;;;;;4907890;28;20060;-84
2021/04/03 11:18:35;;;;;;;16.27;3.22;;;11.90;64.70;;;;;;4912873;29;20052;-84
2021/04/03 11:21:00;;;;;;;16.10;2.75;;;12.10;64.50;;;;;;4914683;28;20062;-85
2021/04/03 11:23:26;;;;;;;14.30;2.38;;;12.10;63.00;;;;;;4912577;29;20266;-85
2021/04/03 11:25:51;;;;;;;12.88;2.60;;;12.00;63.60;;;;;;4911040;29;20027;-85
2021/04/03 11:28:17;;;;;;;21.27;3.40;;;11.90;63.00;;;;;;4894570;28;20032;-84
2021/04/03 11:30:42;;;;;;;15.27;2.25;;;11.80;63.10;;;;;;4894745;28;20033;-84
2021/04/03 11:33:08;;;;;;;16.25;2.90;;;11.90;63.00;;;;;;4976289;28;20021;-85
2021/04/03 11:35:35;;;;;;;23.23;3.47;;;12.00;62.40;;;;;;4901906;28;20036;-85
2021/04/03 11:38:02;;;;;;;19.65;2.50;;;12.10;62.00;;;;;;4913542;29;20028;-85
2021/04/03 11:40:28;;;;;;;14.93;1.95;;;12.00;61.30;;;;;;4956482;28;20043;-85
2021/04/03 11:42:55;;;;;;;21.60;3.67;;;11.90;62.00;;;;;;4913167;29;20034;-85
2021/04/03 11:45:23;;;;;;;18.45;3.35;;;11.90;61.40;;;;;;4914307;29;20177;-85
2021/04/03 11:47:49;;;;;;;16.95;2.15;;;11.90;61.50;;;;;;4914388;29;20043;-85
2021/04/03 11:50:15;;;;;;;13.13;2.78;;;12.00;61.40;;;;;;4911691;29;20556;-85
2021/04/03 11:52:41;;;;;;;14.68;2.10;;;11.90;61.10;;;;;;4913434;29;20063;-85
2021/04/03 11:55:08;;;;;;;16.27;2.75;;;12.00;61.20;;;;;;4909091;29;20079;-85
2021/04/03 11:57:35;;;;;;;19.15;3.08;;;12.10;60.80;;;;;;4909944;28;20028;-85
2021/04/03 12:00:01;;;;;;;16.83;2.30;;;12.10;61.30;;;;;;4909874;29;20045;-85
2021/04/03 12:02:26;;;;;;;16.83;1.85;;;12.30;61.70;;;;;;4912072;29;20047;-85
2021/04/03 12:04:52;;;;;;;17.80;2.60;;;12.40;60.50;;;;;;4913294;29;20035;-86
2021/04/03 12:07:17;;;;;;;14.40;2.42;;;12.30;58.90;;;;;;4913204;29;20380;-85
2021/04/03 12:09:43;;;;;;;10.43;1.73;;;12.10;58.30;;;;;;4913428;29;20025;-85
2021/04/03 12:12:09;;;;;;;12.68;1.75;;;12.10;59.20;;;;;;4913021;29;20029;-85
2021/04/03 12:14:35;;;;;;;10.43;1.58;;;12.20;59.30;;;;;;4913106;29;20043;-85
2021/04/03 12:17:00;;;;;;;17.30;2.47;;;12.30;59.60;;;;;;4912021;29;20032;-85
2021/04/03 12:19:26;;;;;;;16.75;2.75;;;12.30;58.40;;;;;;4914523;29;20040;-86
2021/04/03 12:21:52;;;;;;;11.05;1.85;;;12.30;58.60;;;;;;4916450;29;20029;-85
2021/04/03 12:24:18;;;;;;;14.90;2.47;;;12.40;59.00;;;;;;4915275;29;20036;-85
2021/04/03 12:26:44;;;;;;;16.27;2.50;;;12.50;58.30;;;;;;4915976;28;20031;-85
2021/04/03 12:29:09;;;;;;;15.63;2.30;;;12.60;59.40;;;;;;4917461;29;20060;-86
2021/04/03 12:31:35;;;;;;;18.23;2.38;;;12.60;59.50;;;;;;4916326;29;20067;-86
2021/04/03 12:34:00;;;;;;;19.60;2.10;;;12.60;59.20;;;;;;4915844;28;20127;-85
2021/04/03 12:36:26;;;;;;;19.83;2.70;;;12.60;59.10;;;;;;4916043;29;20548;-86
2021/04/03 12:38:51;;;;;;;23.42;2.60;;;12.50;59.00;;;;;;4917209;29;20535;-86
2021/04/03 12:41:17;;;;;;;13.13;1.80;;;12.30;59.10;;;;;;4916016;29;20027;-85
2021/04/03 12:43:43;;;;;;;21.30;2.53;;;12.30;59.80;;;;;;4917023;28;20031;-85
2021/04/03 12:46:08;;;;;;;14.48;2.88;;;12.30;60.00;;;;;;4913373;29;20032;-86
2021/04/03 12:48:34;;;;;;;20.10;3.03;;;12.30;59.50;;;;;;4981592;28;20059;-85
2021/04/03 12:51:00;;;;;;;14.05;2.08;;;12.30;60.80;;;;;;4916984;29;20025;-85
2021/04/03 12:53:26;;;;;;;13.18;2.30;;;12.40;59.90;;;;;;4915082;29;20107;-86